createdAt,value
2022-09-20T00:04:32.577Z,90.95
2022-09-20T00:05:49.721Z,90.44
2022-09-20T00:06:47.383Z,90.23
2022-09-20T00:08:09.011Z,89.92
2022-09-20T00:09:26.586Z,88.80
2022-09-20T00:10:54.942Z,87.88
2022-09-20T00:12:04.904Z,88.18
2022-09-20T00:12:49.102Z,88.18
2022-09-20T00:17:42.547Z,87.73
2022-09-20T00:21:09.052Z,86.81
2022-09-20T00:44:15.293Z,86.26
2022-09-20T00:48:57.545Z,85.44
2022-09-20T00:54:10.248Z,86.57
2022-09-20T01:11:23.001Z,89.15
2022-09-20T01:13:06.257Z,89.19
2022-09-20T01:41:49.431Z,91.42
2022-09-20T02:06:40.203Z,92.69
2022-09-20T02:08:15.316Z,91.70
2022-09-20T02:09:21.679Z,91.80
2022-09-20T02:10:21.201Z,91.35
2022-09-20T02:13:50.046Z,91.91
2022-09-20T02:30:31.289Z,94.11
2022-09-20T02:46:11.734Z,95.34
2022-09-20T02:49:58.756Z,95.81
2022-09-20T02:53:18.188Z,95.81
2022-09-20T02:54:36.273Z,95.61
2022-09-20T02:59:05.751Z,94.84
2022-09-20T03:05:49.651Z,94.18
2022-09-20T03:06:49.755Z,93.98
2022-09-20T03:07:49.634Z,93.77
2022-09-20T03:08:49.677Z,94.18
2022-09-20T03:09:49.557Z,94.08
2022-09-20T03:10:49.548Z,93.98
2022-09-20T03:11:50.752Z,94.18
2022-09-20T03:12:50.723Z,93.98
2022-09-20T03:18:25.626Z,93.01
2022-09-20T03:25:02.325Z,91.74
2022-09-20T03:31:10.451Z,91.63
2022-09-20T03:49:31.788Z,92.70
2022-09-20T03:55:10.097Z,90.71
2022-09-20T03:56:19.016Z,90.81
2022-09-20T04:00:20.175Z,90.50
2022-09-20T04:01:29.994Z,90.30
2022-09-20T04:04:39.470Z,91.82
2022-09-20T04:05:39.492Z,91.41
2022-09-20T04:06:39.499Z,91.93
2022-09-20T04:07:39.474Z,92.69
2022-09-20T04:08:40.330Z,93.10
2022-09-20T04:09:39.273Z,92.69
2022-09-20T04:10:39.241Z,92.99
2022-09-20T04:11:40.531Z,93.10
2022-09-20T04:12:40.453Z,93.10
2022-09-20T04:13:40.486Z,92.99
2022-09-20T04:14:40.583Z,92.89
2022-09-20T04:15:40.859Z,92.99
2022-09-20T04:16:40.534Z,92.33
2022-09-20T04:17:40.443Z,93.05
2022-09-20T04:18:40.548Z,92.33
2022-09-20T04:19:40.389Z,92.85
2022-09-20T04:20:40.526Z,92.03
2022-09-20T04:21:40.467Z,92.64
2022-09-20T04:22:40.345Z,92.54
2022-09-20T04:23:40.462Z,93.16
2022-09-20T04:24:40.371Z,92.85
2022-09-20T04:25:43.798Z,93.05
2022-09-20T04:26:41.440Z,92.85
2022-09-20T04:27:40.341Z,93.05
2022-09-20T04:28:40.425Z,92.95
2022-09-20T04:56:20.983Z,92.64
2022-09-20T04:57:21.041Z,91.72
2022-09-20T04:58:21.397Z,91.31
2022-09-20T05:02:08.603Z,91.45
2022-09-20T05:03:08.549Z,91.80
2022-09-20T05:04:09.897Z,92.11
2022-09-20T05:05:09.588Z,91.86
2022-09-20T05:06:09.640Z,91.97
2022-09-20T05:07:09.531Z,92.17
2022-09-20T05:08:09.525Z,92.38
2022-09-20T05:09:09.734Z,91.97
2022-09-20T05:10:09.497Z,91.76
2022-09-20T05:11:09.570Z,91.86
2022-09-20T05:12:09.539Z,92.89
2022-09-20T05:13:09.491Z,92.48
2022-09-20T05:14:09.445Z,92.93
2022-09-20T05:15:09.589Z,92.63
2022-09-20T05:20:17.361Z,93.24
2022-09-20T05:21:17.420Z,93.04
2022-09-20T05:22:17.293Z,92.93
2022-09-20T05:23:17.394Z,93.14
2022-09-20T05:24:17.198Z,92.63
2022-09-20T05:25:17.216Z,92.77
2022-09-20T05:26:18.422Z,93.35
2022-09-20T05:27:44.975Z,93.59
2022-09-20T05:35:15.031Z,93.49
2022-09-20T05:36:16.646Z,93.49
2022-09-20T05:37:16.525Z,93.70
2022-09-20T05:38:16.211Z,93.55
2022-09-20T05:56:30.904Z,95.14
2022-09-20T05:57:32.284Z,95.14
2022-09-20T05:58:32.272Z,95.03
2022-09-20T06:01:41.371Z,94.27
2022-09-20T06:02:41.346Z,93.96
2022-09-20T06:05:30.230Z,93.40
2022-09-20T06:16:45.632Z,92.27
2022-09-20T06:17:46.966Z,91.97
2022-09-20T06:18:46.813Z,92.48
2022-09-20T06:19:46.650Z,93.35
2022-09-20T06:20:46.639Z,93.10
2022-09-20T06:21:46.670Z,93.20
2022-09-20T06:22:46.652Z,93.61
2022-09-20T06:36:17.524Z,94.64
2022-09-20T06:56:39.588Z,93.13
2022-09-20T06:57:40.965Z,93.23
2022-09-20T06:58:40.676Z,92.16
2022-09-20T06:59:40.631Z,91.55
2022-09-20T07:00:40.775Z,91.55
2022-09-20T07:01:40.713Z,91.24
2022-09-20T07:02:40.578Z,91.20
2022-09-20T07:03:40.590Z,90.89
2022-09-20T07:04:40.603Z,90.89
2022-09-20T07:05:40.803Z,90.84
2022-09-20T07:06:40.560Z,91.26
2022-09-20T07:07:40.594Z,90.84
2022-09-20T07:08:40.559Z,90.54
2022-09-20T07:09:40.542Z,89.72
2022-09-20T07:10:40.676Z,89.21
2022-09-20T07:11:40.575Z,88.56
2022-09-20T07:12:40.478Z,88.76
2022-09-20T07:13:40.526Z,88.96
2022-09-20T07:14:40.485Z,89.43
2022-09-20T07:15:40.476Z,87.53
2022-09-20T07:16:40.624Z,87.32
2022-09-20T07:17:40.482Z,88.04
2022-09-20T07:18:40.472Z,87.70
2022-09-20T07:19:40.421Z,87.22
2022-09-20T07:20:40.433Z,86.71
2022-09-20T07:21:40.437Z,86.61
2022-09-20T07:22:40.404Z,86.05
2022-09-20T07:23:41.412Z,84.83
2022-09-20T07:24:40.382Z,85.44
2022-09-20T07:25:40.433Z,87.24
2022-09-20T07:26:40.397Z,86.43
2022-09-20T07:27:40.363Z,86.63
2022-09-20T07:28:40.318Z,86.32
2022-09-20T07:29:40.372Z,84.44
2022-09-20T07:30:40.389Z,84.44
2022-09-20T07:36:56.354Z,84.47
2022-09-20T07:37:56.382Z,83.44
2022-09-20T07:38:56.388Z,83.54
2022-09-20T07:39:56.405Z,83.28
2022-09-20T07:40:57.449Z,85.53
2022-09-20T07:41:57.936Z,83.89
2022-09-20T07:42:57.357Z,83.18
2022-09-20T07:43:57.380Z,84.61
2022-09-20T07:44:57.358Z,84.67
2022-09-20T07:45:57.374Z,84.71
2022-09-20T07:46:57.275Z,83.44
2022-09-20T07:47:57.290Z,83.30
2022-09-20T07:48:57.321Z,82.08
2022-09-20T07:49:57.306Z,81.98
2022-09-20T07:50:57.322Z,83.00
2022-09-20T07:51:57.271Z,83.16
2022-09-20T07:52:57.287Z,83.37
2022-09-20T07:53:57.236Z,82.00
2022-09-20T07:54:57.262Z,83.23
2022-09-20T07:55:57.242Z,81.96
2022-09-20T07:56:57.229Z,79.93
2022-09-20T07:57:57.199Z,80.54
2022-09-20T07:58:57.257Z,79.62
2022-09-20T07:59:58.191Z,79.82
2022-09-20T08:00:57.249Z,80.64
2022-09-20T08:01:57.243Z,79.62
2022-09-20T08:02:57.161Z,79.11
2022-09-20T08:03:57.160Z,79.62
2022-09-20T08:04:57.140Z,78.91
2022-09-20T08:05:57.158Z,79.25
2022-09-20T08:06:57.207Z,78.94
2022-09-20T08:07:57.104Z,79.21
2022-09-20T08:08:57.123Z,81.29
2022-09-20T08:09:57.166Z,80.78
2022-09-20T08:10:57.099Z,78.94
2022-09-20T08:11:57.455Z,79.04
2022-09-20T08:14:07.782Z,79.93
2022-09-20T08:14:59.109Z,80.02
2022-09-20T08:15:57.025Z,79.82
2022-09-20T08:16:57.154Z,79.62
2022-09-20T08:17:57.011Z,78.26
2022-09-20T08:18:58.771Z,78.66
2022-09-20T08:19:57.022Z,78.46
2022-09-20T08:20:56.978Z,78.16
2022-09-20T08:21:57.038Z,78.36
2022-09-20T08:23:22.171Z,77.75
2022-09-20T08:23:58.981Z,77.91
2022-09-20T08:24:56.982Z,78.32
2022-09-20T08:25:56.904Z,78.32
2022-09-20T08:26:56.972Z,78.12
2022-09-20T08:27:56.906Z,79.50
2022-09-20T08:28:56.937Z,79.14
2022-09-20T08:29:56.903Z,78.39
2022-09-20T08:30:56.909Z,78.89
2022-09-20T08:31:56.982Z,79.00
2022-09-20T08:32:56.850Z,78.08
2022-09-20T08:33:56.920Z,78.35
2022-09-20T08:34:56.823Z,76.42
2022-09-20T08:35:57.663Z,75.87
2022-09-20T08:36:57.908Z,76.59
2022-09-20T08:37:56.985Z,75.40
2022-09-20T08:39:59.320Z,76.86
2022-09-20T08:40:56.797Z,76.95
2022-09-20T08:41:56.842Z,77.36
2022-09-20T08:42:56.753Z,76.86
2022-09-20T08:43:56.816Z,75.02
2022-09-20T08:44:58.174Z,73.26
2022-09-20T08:45:57.807Z,74.31
2022-09-20T08:46:56.796Z,74.72
2022-09-20T08:47:58.809Z,75.33
2022-09-20T08:48:57.734Z,76.86
2022-09-20T08:49:57.284Z,76.25
2022-09-20T08:50:57.695Z,77.47
2022-09-20T08:51:56.716Z,77.36
2022-09-20T08:53:00.112Z,77.26
2022-09-20T08:53:57.682Z,77.36
2022-09-20T08:54:56.637Z,76.79
2022-09-20T08:55:56.660Z,76.28
2022-09-20T08:56:56.660Z,76.07
2022-09-20T08:57:56.623Z,76.86
2022-09-20T08:58:56.610Z,77.09
2022-09-20T08:59:56.596Z,77.06
2022-09-20T09:00:56.641Z,76.65
2022-09-20T09:01:56.674Z,74.76
2022-09-20T09:02:56.561Z,73.33
2022-09-20T09:03:56.545Z,73.02
2022-09-20T09:04:56.497Z,73.54
2022-09-20T09:05:56.484Z,74.96
2022-09-20T09:06:56.549Z,73.50
2022-09-20T09:07:56.509Z,73.09
2022-09-20T09:08:56.474Z,73.09
2022-09-20T09:09:56.486Z,73.77
2022-09-20T09:10:56.417Z,71.84
2022-09-20T09:11:56.453Z,71.03
2022-09-20T09:12:56.533Z,71.94
2022-09-20T09:13:56.536Z,71.23
2022-09-20T09:14:56.412Z,70.99
2022-09-20T09:15:56.428Z,71.12
2022-09-20T09:16:56.484Z,73.06
2022-09-20T09:17:56.361Z,72.25
2022-09-20T09:18:56.381Z,72.55
2022-09-20T09:19:56.390Z,70.62
2022-09-20T09:20:56.393Z,70.86
2022-09-20T09:21:56.354Z,70.86
2022-09-20T09:22:56.337Z,69.74
2022-09-20T09:23:56.356Z,69.26
2022-09-20T09:24:56.319Z,69.49
2022-09-20T09:25:56.307Z,69.29
2022-09-20T09:26:56.354Z,70.41
2022-09-20T09:27:56.334Z,72.69
2022-09-20T09:28:56.301Z,72.38
2022-09-20T09:29:56.305Z,72.04
2022-09-20T09:30:56.284Z,71.33
2022-09-20T09:31:56.351Z,73.16
2022-09-20T09:32:56.295Z,73.06
2022-09-20T09:33:57.257Z,73.09
2022-09-20T09:34:56.231Z,73.33
2022-09-20T09:35:56.177Z,74.65
2022-09-20T09:36:56.319Z,75.57
2022-09-20T09:37:56.214Z,75.09
2022-09-20T09:38:56.187Z,75.30
2022-09-20T09:39:56.152Z,75.46
2022-09-20T09:40:56.158Z,75.37
2022-09-20T09:41:56.187Z,74.99
2022-09-20T09:42:56.174Z,74.48
2022-09-20T09:43:56.206Z,74.65
2022-09-20T09:44:56.155Z,73.06
2022-09-20T09:45:56.135Z,73.26
2022-09-20T09:46:56.117Z,73.06
2022-09-20T09:47:56.093Z,73.54
2022-09-20T09:48:56.129Z,72.92
2022-09-20T09:50:00.172Z,73.09
2022-09-20T09:50:58.035Z,73.80
2022-09-20T09:51:56.107Z,74.88
2022-09-20T09:52:56.055Z,73.33
2022-09-20T09:53:56.017Z,72.99
2022-09-20T09:54:55.991Z,71.26
2022-09-20T09:55:56.007Z,70.76
2022-09-20T09:56:56.015Z,72.69
2022-09-20T09:57:56.025Z,71.16
2022-09-20T09:58:55.974Z,69.95
2022-09-20T09:59:55.964Z,69.34
2022-09-20T10:00:55.984Z,70.68
2022-09-20T10:01:56.098Z,70.79
2022-09-20T10:02:55.963Z,70.59
2022-09-20T10:03:55.920Z,69.17
2022-09-20T10:04:55.891Z,68.96
2022-09-20T10:05:55.943Z,69.23
2022-09-20T10:06:56.023Z,69.98
2022-09-20T10:07:55.894Z,70.79
2022-09-20T10:08:55.948Z,71.36
2022-09-20T10:09:55.898Z,69.03
2022-09-20T10:10:55.856Z,68.83
2022-09-20T10:11:55.902Z,70.55
2022-09-20T10:12:55.834Z,68.86
2022-09-20T10:13:55.989Z,68.76
2022-09-20T10:14:55.873Z,69.57
2022-09-20T10:15:55.811Z,69.17
2022-09-20T10:16:55.913Z,69.78
2022-09-20T10:17:55.761Z,69.91
2022-09-20T10:18:55.801Z,69.50
2022-09-20T10:19:55.763Z,71.20
2022-09-20T10:20:55.817Z,70.52
2022-09-20T10:21:55.744Z,70.48
2022-09-20T10:23:30.092Z,69.60
2022-09-20T10:24:05.166Z,69.09
2022-09-20T10:24:57.737Z,68.89
2022-09-20T10:25:55.717Z,68.76
2022-09-20T10:26:55.734Z,69.20
2022-09-20T10:27:55.718Z,69.78
2022-09-20T10:28:55.732Z,69.95
2022-09-20T10:29:55.692Z,67.61
2022-09-20T10:30:55.692Z,68.90
2022-09-20T10:31:55.645Z,67.88
2022-09-20T10:32:55.702Z,67.41
2022-09-20T10:33:55.652Z,68.43
2022-09-20T10:34:55.640Z,65.79
2022-09-20T10:35:55.638Z,64.54
2022-09-20T10:36:55.657Z,63.93
2022-09-20T10:37:55.580Z,66.27
2022-09-20T10:38:55.584Z,66.37
2022-09-20T10:39:55.563Z,64.98
2022-09-20T10:40:56.558Z,65.36
2022-09-20T10:41:55.548Z,64.34
2022-09-20T10:42:55.543Z,65.39
2022-09-20T10:43:55.569Z,66.06
2022-09-20T10:44:55.522Z,65.45
2022-09-20T10:46:57.582Z,63.63
2022-09-20T10:47:55.461Z,62.11
2022-09-20T10:48:55.480Z,63.12
2022-09-20T10:49:55.463Z,63.56
2022-09-20T10:50:55.455Z,64.27
2022-09-20T10:51:55.459Z,64.37
2022-09-20T10:52:55.470Z,65.92
2022-09-20T10:53:55.428Z,66.13
2022-09-20T10:54:55.434Z,65.01
2022-09-20T10:55:55.377Z,65.11
2022-09-20T10:56:56.424Z,65.92
2022-09-20T10:57:55.464Z,65.55
2022-09-20T10:58:55.405Z,67.17
2022-09-20T10:59:55.341Z,67.17
2022-09-20T11:00:55.349Z,65.75
2022-09-20T11:01:55.414Z,65.45
2022-09-20T11:02:55.416Z,65.75
2022-09-20T11:03:55.331Z,66.60
2022-09-20T11:04:55.320Z,66.39
2022-09-20T11:05:55.291Z,66.08
2022-09-20T11:06:55.334Z,67.20
2022-09-20T11:07:56.291Z,67.41
2022-09-20T11:08:55.281Z,67.77
2022-09-20T11:09:55.256Z,67.47
2022-09-20T11:10:55.281Z,69.26
2022-09-20T11:11:55.247Z,69.40
2022-09-20T11:12:55.261Z,67.88
2022-09-20T11:13:55.253Z,68.69
2022-09-20T11:14:55.219Z,68.69
2022-09-20T11:15:55.211Z,69.40
2022-09-20T11:16:55.251Z,69.67
2022-09-20T11:17:55.226Z,67.84
2022-09-20T11:18:55.236Z,69.47
2022-09-20T11:19:55.156Z,69.13
2022-09-20T11:20:55.142Z,69.54
2022-09-20T11:21:55.142Z,69.34
2022-09-20T11:22:55.091Z,67.50
2022-09-20T11:23:55.162Z,68.83
2022-09-20T11:24:55.189Z,68.22
2022-09-20T11:25:55.087Z,67.98
2022-09-20T11:26:55.159Z,68.19
2022-09-20T11:27:55.095Z,67.95
2022-09-20T11:28:55.050Z,66.40
2022-09-20T11:29:55.052Z,65.89
2022-09-20T11:30:55.091Z,67.28
2022-09-20T11:31:55.136Z,65.05
2022-09-20T11:32:55.030Z,64.75
2022-09-20T11:33:55.039Z,64.24
2022-09-20T11:34:55.015Z,64.41
2022-09-20T11:35:55.042Z,64.11
2022-09-20T11:36:55.118Z,62.08
2022-09-20T11:37:55.009Z,63.81
2022-09-20T11:38:54.938Z,63.40
2022-09-20T11:39:55.073Z,64.31
2022-09-20T11:40:55.000Z,61.10
2022-09-20T11:41:54.959Z,63.32
2022-09-20T11:42:54.912Z,63.53
2022-09-20T11:43:54.944Z,63.96
2022-09-20T11:44:54.913Z,63.46
2022-09-20T11:45:54.921Z,63.86
2022-09-20T11:46:54.905Z,64.88
2022-09-20T11:47:55.858Z,65.59
2022-09-20T11:48:55.890Z,65.96
2022-09-20T11:49:54.906Z,65.56
2022-09-20T11:50:54.898Z,63.83
2022-09-20T11:51:54.840Z,64.34
2022-09-20T11:52:54.840Z,62.92
2022-09-20T11:53:54.794Z,64.44
2022-09-20T11:54:54.851Z,64.82
2022-09-20T11:55:54.808Z,63.32
2022-09-20T11:56:54.790Z,64.21
2022-09-20T11:57:54.808Z,63.50
2022-09-20T11:58:54.826Z,63.30
2022-09-20T11:59:54.804Z,63.27
2022-09-20T12:00:54.781Z,62.08
2022-09-20T12:01:54.862Z,61.88
2022-09-20T12:02:54.841Z,62.38
2022-09-20T12:04:14.168Z,63.09
2022-09-20T12:04:56.718Z,62.05
2022-09-20T12:05:54.719Z,62.15
2022-09-20T12:06:54.734Z,62.05
2022-09-20T12:07:54.666Z,62.49
2022-09-20T12:08:54.683Z,60.46
2022-09-20T12:09:54.659Z,62.11
2022-09-20T12:10:54.663Z,62.31
2022-09-20T12:11:54.657Z,61.91
2022-09-20T12:12:54.659Z,61.20
2022-09-20T12:13:54.668Z,60.69
2022-09-20T12:14:54.629Z,61.20
2022-09-20T12:15:54.599Z,62.01
2022-09-20T12:16:54.660Z,61.60
2022-09-20T12:17:54.544Z,60.39
2022-09-20T12:18:54.632Z,60.49
2022-09-20T12:19:54.574Z,60.36
2022-09-20T12:20:54.542Z,61.65
2022-09-20T12:21:54.542Z,61.85
2022-09-20T12:22:54.538Z,60.10
2022-09-20T12:23:54.514Z,59.56
2022-09-20T12:24:54.478Z,58.65
2022-09-20T12:25:54.508Z,59.44
2022-09-20T12:26:54.555Z,59.00
2022-09-20T12:27:54.589Z,57.59
2022-09-20T12:28:54.460Z,59.69
2022-09-20T12:29:54.459Z,57.59
2022-09-20T12:30:54.456Z,58.60
2022-09-20T12:31:54.481Z,57.67
2022-09-20T12:32:54.437Z,58.47
2022-09-20T12:33:54.421Z,58.45
2022-09-20T12:34:54.398Z,56.56
2022-09-20T12:35:54.426Z,55.74
2022-09-20T12:36:54.395Z,55.54
2022-09-20T12:37:54.371Z,55.65
2022-09-20T12:38:54.374Z,55.67
2022-09-20T12:39:54.393Z,55.67
2022-09-20T12:40:54.348Z,55.07
2022-09-20T12:41:54.375Z,55.98
2022-09-20T12:42:54.350Z,55.60
2022-09-20T12:43:54.401Z,54.38
2022-09-20T12:44:54.298Z,55.62
2022-09-20T12:45:54.323Z,55.52
2022-09-20T12:46:54.307Z,56.66
2022-09-20T12:47:54.405Z,57.27
2022-09-20T12:48:54.318Z,58.41
2022-09-20T12:49:54.256Z,59.22
2022-09-20T12:50:54.251Z,58.44
2022-09-20T12:51:54.232Z,60.36
2022-09-20T12:52:54.282Z,59.85
2022-09-20T12:53:54.219Z,59.75
2022-09-20T12:54:54.603Z,59.95
2022-09-20T12:55:55.266Z,60.49
2022-09-20T12:56:54.214Z,60.16
2022-09-20T12:57:54.193Z,60.19
2022-09-20T12:58:54.201Z,61.30
2022-09-20T12:59:54.160Z,61.88
2022-09-20T13:00:54.180Z,62.08
2022-09-20T13:01:54.233Z,62.52
2022-09-20T13:02:54.146Z,62.21
2022-09-20T13:03:54.119Z,62.08
2022-09-20T13:04:54.236Z,62.29
2022-09-20T13:05:54.089Z,62.99
2022-09-20T13:06:54.147Z,62.05
2022-09-20T13:07:54.121Z,60.33
2022-09-20T13:08:54.040Z,60.13
2022-09-20T13:09:54.070Z,61.24
2022-09-20T13:10:54.058Z,61.65
2022-09-20T13:11:54.074Z,61.37
2022-09-20T13:12:54.740Z,62.11
2022-09-20T13:13:55.039Z,62.11
2022-09-20T13:14:53.985Z,61.43
2022-09-20T13:15:54.096Z,61.74
2022-09-20T13:16:54.858Z,63.39
2022-09-20T13:17:56.579Z,63.69
2022-09-20T13:18:53.944Z,63.89
2022-09-20T13:19:56.622Z,62.71
2022-09-20T13:20:55.255Z,62.20
2022-09-20T13:21:55.740Z,61.74
2022-09-20T13:22:59.572Z,60.08
2022-09-20T13:23:55.947Z,60.36
2022-09-20T13:24:54.487Z,60.13
2022-09-20T13:25:55.198Z,59.22
2022-09-20T13:26:55.683Z,59.70
2022-09-20T13:27:56.607Z,59.87
2022-09-20T13:28:55.943Z,57.34
2022-09-20T13:29:57.168Z,56.13
2022-09-20T13:31:06.179Z,55.60
2022-09-20T13:31:57.774Z,56.48
2022-09-20T13:32:54.059Z,56.78
2022-09-20T13:33:54.043Z,55.54
2022-09-20T13:36:14.606Z,54.51
2022-09-20T13:36:16.440Z,53.83
2022-09-20T13:37:16.324Z,52.17
2022-09-20T13:38:16.158Z,51.29
2022-09-20T13:39:17.037Z,49.83
2022-09-20T13:40:19.284Z,46.77
2022-09-20T13:41:16.591Z,45.95
2022-09-20T13:42:17.680Z,45.30
2022-09-20T13:43:24.242Z,44.76
2022-09-20T13:44:18.192Z,44.51
2022-09-20T13:45:16.579Z,41.60
2022-09-20T13:47:46.343Z,41.39
2022-09-20T13:47:48.749Z,41.53
2022-09-20T13:50:14.605Z,43.27
2022-09-20T13:51:37.641Z,45.12
2022-09-20T13:51:39.793Z,45.97
2022-09-20T13:52:39.482Z,46.69
2022-09-20T13:53:41.835Z,46.89
2022-09-20T13:54:40.312Z,47.19
2022-09-20T13:55:39.285Z,46.39
2022-09-20T13:56:39.289Z,47.14
2022-09-20T13:57:39.802Z,48.47
2022-09-20T13:58:39.646Z,49.12
2022-09-20T13:59:39.620Z,51.36
2022-09-20T14:00:39.529Z,51.48
2022-09-20T14:01:39.288Z,49.99
2022-09-20T14:02:39.822Z,50.50
2022-09-20T14:03:40.147Z,51.53
2022-09-20T14:04:39.163Z,52.24
2022-09-20T14:05:39.492Z,53.17
2022-09-20T14:06:39.098Z,53.67
2022-09-20T14:07:39.310Z,53.47
2022-09-20T14:08:39.145Z,51.96
2022-09-20T14:09:40.798Z,54.18
2022-09-20T14:10:39.155Z,55.09
2022-09-20T14:11:39.147Z,54.51
2022-09-20T14:12:39.139Z,55.92
2022-09-20T14:13:39.107Z,55.04
2022-09-20T14:14:39.639Z,55.74
2022-09-20T14:15:39.083Z,55.65
2022-09-20T14:16:39.076Z,55.07
2022-09-20T14:17:40.685Z,55.36
2022-09-20T14:18:39.262Z,55.80
2022-09-20T14:19:39.754Z,55.40
2022-09-20T14:20:39.161Z,56.13
2022-09-20T14:21:39.566Z,56.94
2022-09-20T14:22:41.341Z,57.57
2022-09-20T14:23:38.984Z,58.61
2022-09-20T14:24:39.100Z,59.42
2022-09-20T14:25:39.050Z,59.25
2022-09-20T14:26:38.980Z,59.88
2022-09-20T14:27:39.293Z,61.47
2022-09-20T14:28:38.882Z,62.72
2022-09-20T14:29:41.096Z,62.31
2022-09-20T14:30:39.495Z,63.46
2022-09-20T14:31:39.102Z,63.66
2022-09-20T14:32:39.028Z,63.66
2022-09-20T14:33:38.972Z,62.54
2022-09-20T14:34:44.214Z,63.08
2022-09-20T14:35:38.890Z,64.53
2022-09-20T14:36:39.211Z,64.43
2022-09-20T14:37:38.917Z,65.34
2022-09-20T14:38:38.765Z,66.05
2022-09-20T14:39:42.983Z,66.16
2022-09-20T14:40:40.071Z,67.20
2022-09-20T14:41:39.083Z,67.30
2022-09-20T14:42:38.775Z,67.61
2022-09-20T14:43:39.076Z,68.73
2022-09-20T14:44:40.628Z,68.12
2022-09-20T14:45:39.108Z,69.43
2022-09-20T14:46:39.111Z,67.24
2022-09-20T14:47:39.282Z,67.91
2022-09-20T14:48:38.776Z,67.20
2022-09-20T14:49:38.804Z,67.61
2022-09-20T14:50:39.369Z,65.99
2022-09-20T14:51:38.974Z,66.49
2022-09-20T14:52:38.702Z,65.78
2022-09-20T14:53:38.677Z,65.78
2022-09-20T14:54:38.905Z,63.34
2022-09-20T14:55:38.640Z,64.67
2022-09-20T14:56:38.920Z,64.03
2022-09-20T14:57:38.588Z,64.23
2022-09-20T14:58:38.631Z,64.43
2022-09-20T14:59:38.650Z,64.20
2022-09-20T15:00:38.668Z,64.10
2022-09-20T15:01:38.820Z,63.29
2022-09-20T15:02:38.627Z,62.57
2022-09-20T15:03:39.576Z,62.37
2022-09-20T15:04:38.543Z,60.75
2022-09-20T15:05:38.492Z,59.97
2022-09-20T15:06:38.542Z,60.07
2022-09-20T15:07:38.574Z,60.75
2022-09-20T15:08:40.786Z,60.65
2022-09-20T15:09:39.411Z,60.24
2022-09-20T15:10:38.448Z,60.21
2022-09-20T15:11:38.434Z,60.01
2022-09-20T15:12:38.390Z,60.31
2022-09-20T15:13:38.438Z,59.91
2022-09-20T15:14:38.396Z,60.42
2022-09-20T15:15:38.393Z,61.10
2022-09-20T15:16:38.420Z,60.21
2022-09-20T15:17:38.378Z,60.19
2022-09-20T15:18:38.384Z,61.30
2022-09-20T15:19:38.330Z,61.40
2022-09-20T15:20:38.377Z,61.33
2022-09-20T15:21:38.358Z,60.72
2022-09-20T15:22:38.298Z,60.72
2022-09-20T15:23:38.315Z,60.39
2022-09-20T15:24:38.323Z,59.75
2022-09-20T15:25:38.305Z,59.78
2022-09-20T15:26:38.295Z,59.99
2022-09-20T15:27:38.297Z,60.59
2022-09-20T15:28:38.266Z,62.14
2022-09-20T15:29:38.255Z,61.91
2022-09-20T15:30:38.242Z,62.41
2022-09-20T15:31:38.347Z,62.72
2022-09-20T15:32:38.233Z,63.66
2022-09-20T15:33:38.206Z,63.53
2022-09-20T15:34:38.205Z,63.26
2022-09-20T15:35:38.208Z,63.46
2022-09-20T15:36:38.208Z,63.23
2022-09-20T15:37:38.164Z,62.24
2022-09-20T15:38:38.224Z,63.35
2022-09-20T15:39:38.145Z,63.66
2022-09-20T15:40:38.243Z,64.20
2022-09-20T15:41:38.144Z,64.53
2022-09-20T15:42:38.149Z,64.30
2022-09-20T15:43:38.125Z,63.89
2022-09-20T15:44:38.110Z,64.13
2022-09-20T15:45:38.103Z,65.11
2022-09-20T15:46:38.081Z,65.11
2022-09-20T15:47:38.086Z,63.96
2022-09-20T15:48:38.050Z,64.20
2022-09-20T15:49:38.067Z,64.40
2022-09-20T15:50:38.037Z,64.53
2022-09-20T15:51:38.015Z,64.81
2022-09-20T15:52:38.008Z,64.53
2022-09-20T15:53:38.015Z,65.04
2022-09-20T15:54:37.999Z,64.43
2022-09-20T15:55:38.018Z,64.53
2022-09-20T15:56:38.027Z,64.64
2022-09-20T15:57:37.988Z,64.23
2022-09-20T15:58:37.980Z,63.52
2022-09-20T15:59:37.969Z,63.72
2022-09-20T16:00:37.937Z,63.21
2022-09-20T16:01:37.970Z,63.42
2022-09-20T16:02:37.942Z,64.73
2022-09-20T16:03:37.944Z,65.21
2022-09-20T16:04:37.943Z,62.11
2022-09-20T16:05:37.933Z,62.08
2022-09-20T16:06:37.878Z,60.49
2022-09-20T16:07:37.893Z,62.11
2022-09-20T16:08:37.866Z,62.14
2022-09-20T16:09:37.919Z,62.14
2022-09-20T16:10:37.865Z,62.14
2022-09-20T16:11:37.872Z,62.34
2022-09-20T16:12:37.868Z,62.04
2022-09-20T16:13:37.895Z,61.83
2022-09-20T16:14:37.815Z,61.13
2022-09-20T16:15:37.776Z,62.75
2022-09-20T16:16:40.575Z,62.54
2022-09-20T16:17:38.793Z,63.56
2022-09-20T16:18:37.788Z,63.29
2022-09-20T16:19:37.760Z,63.59
2022-09-20T16:20:37.768Z,64.23
2022-09-20T16:21:37.744Z,64.23
2022-09-20T16:22:37.763Z,64.23
2022-09-20T16:23:37.760Z,63.52
2022-09-20T16:24:37.714Z,63.32
2022-09-20T16:25:38.696Z,64.53
2022-09-20T16:26:37.722Z,64.33
2022-09-20T16:27:37.715Z,64.73
2022-09-20T16:28:37.652Z,64.84
2022-09-20T16:29:37.658Z,64.84
2022-09-20T16:30:37.636Z,64.94
2022-09-20T16:31:37.682Z,65.68
2022-09-20T16:32:37.657Z,65.24
2022-09-20T16:33:37.615Z,65.95
2022-09-20T16:34:37.631Z,66.08
2022-09-20T16:35:37.579Z,65.88
2022-09-20T16:36:37.632Z,66.80
2022-09-20T16:37:37.608Z,66.08
2022-09-20T16:38:37.554Z,65.99
2022-09-20T16:39:37.612Z,66.29
2022-09-20T16:40:37.628Z,66.69
2022-09-20T16:41:37.517Z,66.72
2022-09-20T16:42:37.558Z,66.93
2022-09-20T16:43:37.555Z,67.20
2022-09-20T16:44:37.520Z,67.33
2022-09-20T16:45:37.569Z,67.33
2022-09-20T16:46:37.491Z,67.33
2022-09-20T16:47:37.610Z,68.15
2022-09-20T16:48:37.485Z,67.33
2022-09-20T16:49:37.489Z,67.97
2022-09-20T16:50:37.460Z,67.57
2022-09-20T16:51:37.468Z,67.47
2022-09-20T16:52:37.486Z,67.57
2022-09-20T16:53:37.428Z,67.16
2022-09-20T16:54:37.420Z,67.19
2022-09-20T16:55:37.397Z,68.08
2022-09-20T16:56:37.390Z,67.50
2022-09-20T16:57:37.408Z,68.11
2022-09-20T16:58:37.375Z,67.60
2022-09-20T16:59:37.402Z,68.32
2022-09-20T17:00:37.426Z,67.91
2022-09-20T17:01:37.385Z,68.72
2022-09-20T17:02:37.337Z,69.33
2022-09-20T17:03:37.337Z,68.92
2022-09-20T17:04:37.377Z,69.13
2022-09-20T17:05:37.312Z,69.46
2022-09-20T17:06:37.297Z,68.92
2022-09-20T17:07:37.312Z,69.13
2022-09-20T17:08:37.281Z,69.53
2022-09-20T17:09:37.289Z,69.94
2022-09-20T17:10:37.223Z,69.74
2022-09-20T17:11:37.240Z,70.45
2022-09-20T17:12:37.259Z,70.58
2022-09-20T17:13:37.281Z,70.48
2022-09-20T17:14:37.233Z,70.38
2022-09-20T17:15:37.211Z,70.38
2022-09-20T17:16:37.303Z,70.68
2022-09-20T17:17:37.219Z,71.40
2022-09-20T17:18:37.175Z,71.43
2022-09-20T17:19:37.150Z,71.64
2022-09-20T17:20:37.267Z,70.72
2022-09-20T17:21:37.233Z,71.23
2022-09-20T17:22:37.200Z,71.43
2022-09-20T17:23:37.838Z,71.33
2022-09-20T17:24:37.170Z,70.92
2022-09-20T17:25:37.128Z,72.14
2022-09-20T17:26:37.203Z,71.97
2022-09-20T17:27:37.140Z,72.78
2022-09-20T17:28:37.158Z,72.38
2022-09-20T17:29:37.178Z,72.89
2022-09-20T17:30:37.125Z,73.50
2022-09-20T17:31:37.174Z,73.94
2022-09-20T17:32:38.315Z,74.25
2022-09-20T17:33:37.277Z,74.99
2022-09-20T17:34:37.213Z,75.74
2022-09-20T17:35:37.059Z,77.17
2022-09-20T17:36:37.700Z,76.46
2022-09-20T17:37:37.023Z,75.85
2022-09-20T17:38:37.045Z,75.85
2022-09-20T17:39:37.073Z,75.54
2022-09-20T17:40:37.082Z,75.95
2022-09-20T17:41:37.039Z,75.34
2022-09-20T17:42:36.992Z,75.74
2022-09-20T17:43:36.955Z,75.95
2022-09-20T17:44:37.016Z,75.78
2022-09-20T17:45:41.517Z,75.37
2022-09-20T17:46:36.976Z,76.09
2022-09-20T17:47:37.710Z,76.84
2022-09-20T17:48:36.926Z,77.14
2022-09-20T17:49:37.041Z,77.34
2022-09-20T17:50:36.965Z,77.34
2022-09-20T17:51:36.938Z,77.34
2022-09-20T17:52:36.917Z,77.34
2022-09-20T17:53:36.890Z,77.14
2022-09-20T17:54:36.930Z,77.48
2022-09-20T17:55:36.939Z,77.04
2022-09-20T17:56:37.555Z,77.48
2022-09-20T17:57:36.850Z,77.14
2022-09-20T17:58:36.919Z,77.59
2022-09-20T17:59:36.782Z,77.38
2022-09-20T18:00:36.896Z,77.34
2022-09-20T18:01:36.820Z,76.87
2022-09-20T18:02:36.818Z,77.04
2022-09-20T18:03:36.838Z,77.08
2022-09-20T18:04:36.785Z,78.61
2022-09-20T18:05:36.737Z,79.05
2022-09-20T18:06:36.871Z,78.95
2022-09-20T18:07:36.770Z,79.19